createdAt,value
2023-03-23T15:58:14.485Z,99200.48
2023-03-23T16:00:44.361Z,99201.27
2023-03-23T16:03:16.397Z,99205.20
2023-03-23T16:05:45.308Z,99208.42
2023-03-23T16:08:14.948Z,99203.92
2023-03-23T16:10:43.561Z,99206.95
2023-03-23T16:13:13.258Z,99207.55
2023-03-23T16:15:42.152Z,99204.77
2023-03-23T16:18:28.623Z,99205.02
2023-03-23T16:20:57.746Z,99210.59
2023-03-23T16:23:25.963Z,99214.10
2023-03-23T16:25:55.722Z,99211.83
2023-03-23T16:28:24.552Z,99216.99
2023-03-23T16:30:53.666Z,99223.80
2023-03-23T16:33:22.713Z,99236.05
2023-03-23T16:35:51.697Z,99237.02
2023-03-23T16:38:20.507Z,99242.33
2023-03-23T16:40:48.988Z,99244.26
2023-03-23T16:43:17.788Z,99248.97
2023-03-23T16:45:47.692Z,99256.63
2023-03-23T16:48:17.198Z,99257.69
2023-03-23T16:50:45.830Z,99260.14
2023-03-23T16:53:14.734Z,99262.59
2023-03-23T16:55:48.782Z,99260.36
2023-03-23T16:58:18.400Z,99259.44
2023-03-23T17:00:51.895Z,99254.12
2023-03-23T17:03:21.181Z,99243.69
2023-03-23T17:05:51.185Z,99249.86
2023-03-23T17:08:21.222Z,99260.20
2023-03-23T17:10:51.074Z,99262.34
2023-03-23T17:13:20.275Z,99267.52
2023-03-23T17:15:53.708Z,99265.85
2023-03-23T17:18:23.896Z,99268.23
2023-03-23T17:20:56.536Z,99260.15
2023-03-23T17:23:25.814Z,99254.00
2023-03-23T17:25:55.033Z,99246.54
2023-03-23T17:28:24.695Z,99243.94
2023-03-23T17:30:54.313Z,99241.48
2023-03-23T17:33:23.193Z,99242.48
2023-03-23T17:35:52.603Z,99248.81
2023-03-23T17:38:22.143Z,99247.45
2023-03-23T17:40:57.641Z,99254.68
2023-03-23T17:43:26.164Z,99264.51
2023-03-23T17:45:55.194Z,99267.92
2023-03-23T17:48:23.811Z,99270.13
2023-03-23T17:50:54.759Z,99274.55
2023-03-23T17:53:24.637Z,99278.80
2023-03-23T17:55:53.632Z,99284.27
2023-03-23T17:58:22.774Z,99282.90
2023-03-23T18:00:52.004Z,99278.11
2023-03-23T18:03:20.247Z,99271.15
2023-03-23T18:05:49.015Z,99268.19
2023-03-23T18:08:17.573Z,99267.23
2023-03-23T18:10:47.142Z,99265.77
2023-03-23T18:13:15.513Z,99270.52
2023-03-23T18:15:47.101Z,99273.85
2023-03-23T18:18:15.930Z,99278.36
2023-03-23T18:20:44.238Z,99292.83
2023-03-23T18:23:12.705Z,99283.91
2023-03-23T18:25:40.983Z,99272.98
2023-03-23T18:28:09.414Z,99268.70
2023-03-23T18:30:37.933Z,99270.95
2023-03-23T18:33:06.075Z,99268.83
2023-03-23T18:35:34.548Z,99260.85
2023-03-23T18:38:03.949Z,99259.29
2023-03-23T18:40:32.790Z,99258.58
2023-03-23T18:43:01.584Z,99264.58
2023-03-23T18:45:30.341Z,99275.45
2023-03-23T18:48:01.909Z,99278.73
2023-03-23T18:50:30.313Z,99283.58
2023-03-23T18:52:58.584Z,99284.52
2023-03-23T18:55:27.011Z,99282.30
2023-03-23T18:57:55.857Z,99285.71
2023-03-23T19:00:27.485Z,99291.57
2023-03-23T19:02:56.188Z,99295.61
2023-03-23T19:05:24.828Z,99298.94
2023-03-23T19:07:54.035Z,99300.73
2023-03-23T19:10:22.792Z,99295.42
2023-03-23T19:12:51.544Z,99295.48
2023-03-23T19:15:19.718Z,99301.73
2023-03-23T19:17:48.314Z,99295.23
2023-03-23T19:20:37.220Z,99291.52
2023-03-23T19:23:05.871Z,99289.30
2023-03-23T19:25:34.484Z,99289.96
2023-03-23T19:30:35.793Z,99296.09
2023-03-23T19:33:03.966Z,99300.67
2023-03-23T19:35:32.095Z,99304.08
2023-03-23T19:38:00.755Z,99305.56
2023-03-23T19:43:01.176Z,99307.08
2023-03-23T19:45:30.035Z,99304.75
2023-03-23T19:47:59.692Z,99302.23
2023-03-23T19:50:28.686Z,99307.81
2023-03-23T19:52:58.673Z,99298.02
2023-03-23T19:55:29.068Z,99292.46
2023-03-23T19:57:58.545Z,99288.94
2023-03-23T20:00:28.547Z,99289.81
2023-03-23T20:02:58.204Z,99286.70
2023-03-23T20:05:26.894Z,99282.05
2023-03-23T20:07:55.313Z,99285.39
2023-03-23T20:10:24.195Z,99293.98
2023-03-23T20:12:52.998Z,99300.80
2023-03-23T20:15:21.214Z,99306.21
2023-03-23T20:17:50.288Z,99298.15
2023-03-23T20:20:20.213Z,99295.20
2023-03-23T20:22:51.018Z,99290.46
2023-03-23T20:25:22.356Z,99294.58
2023-03-23T20:27:51.004Z,99295.02
2023-03-23T20:30:20.111Z,99294.86
2023-03-23T20:32:49.673Z,99291.44
2023-03-23T20:35:19.168Z,99294.70
2023-03-23T20:37:50.818Z,99307.13
2023-03-23T20:40:20.784Z,99322.44
2023-03-23T20:42:50.134Z,99357.80
2023-03-23T20:45:19.172Z,99375.60
2023-03-23T20:47:48.108Z,99388.11
2023-03-23T20:50:16.564Z,99396.70
2023-03-23T20:52:46.022Z,99410.02
2023-03-23T20:55:15.657Z,99415.43
2023-03-23T20:57:45.284Z,99415.65
2023-03-23T21:00:16.731Z,99408.21
2023-03-23T21:02:45.299Z,99398.98
2023-03-23T21:05:13.670Z,99395.25
2023-03-23T21:07:43.051Z,99394.15
2023-03-23T21:10:11.637Z,99398.17
2023-03-23T21:12:40.291Z,99398.62
2023-03-23T21:15:08.741Z,99399.66
2023-03-23T21:17:37.024Z,99387.45
2023-03-23T21:20:06.018Z,99388.27
2023-03-23T21:22:35.298Z,99389.80
2023-03-23T21:25:03.712Z,99398.93
2023-03-23T21:27:32.502Z,99413.23
2023-03-23T21:30:01.833Z,99421.72
2023-03-23T21:32:31.116Z,99419.14
2023-03-23T21:35:02.848Z,99420.70
2023-03-23T21:37:31.375Z,99434.35
2023-03-23T21:39:59.685Z,99441.89
2023-03-23T21:42:31.273Z,99441.89
2023-03-23T21:45:03.721Z,99436.24
2023-03-23T21:47:32.014Z,99425.66
2023-03-23T21:50:05.027Z,99413.70
2023-03-23T21:52:33.771Z,99407.34
2023-03-23T21:55:03.465Z,99408.44
2023-03-23T21:57:34.585Z,99407.68
2023-03-23T22:00:07.072Z,99408.55
2023-03-23T22:02:35.881Z,99418.68
2023-03-23T22:05:04.473Z,99416.44
2023-03-23T22:07:33.850Z,99405.30
2023-03-23T22:10:02.906Z,99409.43
2023-03-23T22:12:31.972Z,99406.05
2023-03-23T22:15:00.879Z,99404.41
2023-03-23T22:17:30.345Z,99404.40
2023-03-23T22:19:59.053Z,99404.83
2023-03-23T22:22:27.665Z,99405.18
2023-03-23T22:24:56.867Z,99408.19
2023-03-23T22:27:25.412Z,99407.75
2023-03-23T22:29:54.148Z,99413.63
2023-03-23T22:32:22.664Z,99417.20
2023-03-23T22:34:52.433Z,99420.33
2023-03-23T22:37:22.040Z,99423.79
2023-03-23T22:39:50.926Z,99425.60
2023-03-23T22:42:20.074Z,99432.63
2023-03-23T22:44:49.303Z,99441.84
2023-03-23T22:47:18.995Z,99444.34
2023-03-23T22:49:48.088Z,99443.86
2023-03-23T22:52:17.194Z,99435.46
2023-03-23T22:54:46.625Z,99429.59
2023-03-23T22:57:16.010Z,99433.54
2023-03-23T22:59:48.057Z,99440.29
2023-03-23T23:02:17.456Z,99440.77
2023-03-23T23:04:47.106Z,99447.95
2023-03-23T23:07:16.994Z,99442.73
2023-03-23T23:09:46.204Z,99440.27
2023-03-23T23:12:15.851Z,99443.89
2023-03-23T23:14:45.435Z,99440.44
2023-03-23T23:17:14.421Z,99432.04
2023-03-23T23:19:43.559Z,99428.23
2023-03-23T23:22:18.994Z,99430.05
2023-03-23T23:24:49.487Z,99437.41
2023-03-23T23:27:19.117Z,99438.06
2023-03-23T23:29:48.183Z,99431.34
2023-03-23T23:32:17.349Z,99419.81
2023-03-23T23:34:47.369Z,99420.09
2023-03-23T23:37:16.449Z,99429.30
2023-03-23T23:39:46.584Z,99427.26
2023-03-23T23:42:16.466Z,99429.30
2023-03-23T23:44:47.183Z,99428.19
2023-03-23T23:47:16.521Z,99429.39
2023-03-23T23:49:45.553Z,99439.19
2023-03-23T23:52:14.827Z,99433.11
2023-03-23T23:54:48.001Z,99427.02
2023-03-23T23:57:17.349Z,99423.79
2023-03-23T23:59:46.782Z,99429.02
